Eatonton, Georgia
Current Conditions -  °F | °C
As of 12:55 AM on Sunday 23 Nov 2014 (Local Time) from KMLJ Reporting Station
Overcast Overcast  
Wind Chill: 50°   Ceiling: 7500
Heat Index: 50°   Visibility: 10mi
Dew Point: 50°   Wind: 3mph
Humidity: 100%   Direction: 70°ENE
Pressure: 30.2"   Gusts: NA
Location:  33.32°N, 83.39°W
Report Text: KMLJ 230555Z AUTO 07003KT 10SM SCT028 SCT048 OVC075 10/10 A3020 RMK AO2
Loading
Personal Weather Stations






























Interactive Weather Map New forecast layout! Learn more

10-Day Weather Forecast

Advertisements
Track Severe Weather on mobile